HTIR/IRI METAR and TAF weather

Enter ICAO airport designator
Station Type Date Time Source
HTIR METAR 2018/04/19 19:00 UTC NOAA

HTIR 191900Z 00000KT 9999 FEW017 FEW018CB SCT080 19/16 Q1021


Station Type Date Time Source
HTIR Decoded METAR 2018/04/19 19:00 UTC NOAA

Iringa, Tanzania (HTIR) 07-40S 035-45E 1428M
Apr 19, 2018 - 03:00 PM EDT / 2018.04.19 1900 UTC
Wind: Calm:0
Visibility: greater than 7 mile(s):0
Sky conditions: partly cloudy
Weather: Cumulonimbus clouds observed
Temperature: 66 F (19 C)
Dew Point: 60 F (16 C)
Relative Humidity: 82%
Pressure (altimeter): 30.15 in. Hg (1021 hPa)
ob: HTIR 191900Z 00000KT 9999 FEW017 FEW018CB SCT080 19/16 Q1021
cycle: 19

Station Type Date Time Source
HTIR TAF UTC NOAA

Error!


Example: see airport list